Time;durP1;ratioP1;P1;durP2;ratioP2;P2;SDS_P1;SDS_P2;PMS_P1;PMS_P2;Temp;Humidity;BMP_temperature;BMP_pressure;BME280_temperature;BME280_humidity;BME280_pressure;Samples;Min_cycle;Max_cycle;Signal;HPM_P1;HPM_P2
2022/01/21 00:01:41;;;;;;;20.02;3.40;;;0.30;99.90;;;;;;7222764;32;20150;-77
2022/01/21 00:05:43;;;;;;;11.68;2.17;;;0.40;99.90;;;;;;7205041;32;20526;-77
2022/01/21 00:09:47;;;;;;;14.23;2.37;;;0.40;99.90;;;;;;7210286;32;20200;-77
2022/01/21 00:13:49;;;;;;;8.43;2.28;;;0.30;99.90;;;;;;7224905;32;20224;-77
2022/01/21 00:17:51;;;;;;;10.98;2.25;;;0.20;99.90;;;;;;7225987;32;20109;-77
2022/01/21 00:30:33;;;;;;;23.58;3.72;;;0.10;99.90;;;;;;7215988;32;20605;-77
2022/01/21 00:34:36;;;;;;;12.77;3.55;;;0.00;99.90;;;;;;7224262;32;20232;-77
2022/01/21 00:38:40;;;;;;;16.48;4.40;;;0.00;99.90;;;;;;7225613;32;20239;-77
2022/01/21 00:46:45;;;;;;;18.02;4.20;;;0.10;99.90;;;;;;7213740;32;20128;-77
2022/01/21 00:50:47;;;;;;;20.95;5.35;;;-0.10;99.90;;;;;;7220878;32;20198;-77
2022/01/21 00:54:49;;;;;;;14.90;4.10;;;-0.10;99.90;;;;;;7217594;32;20144;-77
2022/01/21 00:58:51;;;;;;;13.32;3.58;;;-0.20;99.90;;;;;;7211287;32;20220;-77
2022/01/21 01:02:56;;;;;;;11.77;3.40;;;-0.20;99.90;;;;;;7211618;32;20123;-77
2022/01/21 01:06:58;;;;;;;8.68;3.50;;;-0.20;99.90;;;;;;7211157;32;20192;-77
2022/01/21 01:28:03;;;;;;;14.35;4.70;;;-0.30;99.90;;;;;;7239130;32;20545;-77
2022/01/21 01:32:06;;;;;;;13.43;4.72;;;-0.30;99.90;;;;;;7239568;32;20125;-77
2022/01/21 01:36:09;;;;;;;16.10;4.20;;;-0.40;99.90;;;;;;7221999;32;20265;-78
2022/01/21 01:53:14;;;;;;;13.52;3.35;;;-0.20;99.90;;;;;;7226638;32;20137;-77
2022/01/21 01:57:16;;;;;;;10.55;3.05;;;-0.10;99.90;;;;;;7226205;32;20134;-78
2022/01/21 02:01:18;;;;;;;11.27;2.75;;;-0.10;99.90;;;;;;7236347;32;20656;-77
2022/01/21 02:05:20;;;;;;;13.23;3.37;;;-0.10;99.90;;;;;;7240503;32;20135;-77
2022/01/21 02:09:22;;;;;;;8.98;3.33;;;-0.10;99.90;;;;;;7213113;32;20121;-77
2022/01/21 02:13:28;;;;;;;17.65;4.15;;;-0.10;99.90;;;;;;7233077;32;20580;-77
2022/01/21 02:21:36;;;;;;;13.45;3.53;;;-0.10;99.90;;;;;;7218733;32;20573;-78
2022/01/21 02:25:37;;;;;;;8.13;2.87;;;0.00;99.90;;;;;;7224342;32;20220;-78
2022/01/21 02:29:48;;;;;;;7.93;2.75;;;0.00;99.90;;;;;;7230540;32;20113;-78
2022/01/21 02:33:50;;;;;;;11.25;3.20;;;0.10;99.90;;;;;;7231271;32;20136;-77
2022/01/21 02:37:52;;;;;;;13.48;3.35;;;0.10;99.90;;;;;;7205990;32;20657;-78
2022/01/21 02:41:55;;;;;;;14.70;3.25;;;0.10;99.90;;;;;;7235663;32;20112;-78
2022/01/21 02:46:03;;;;;;;12.23;2.85;;;0.20;99.90;;;;;;7219927;32;20573;-78
2022/01/21 02:50:05;;;;;;;12.32;2.85;;;0.20;99.90;;;;;;7230016;32;20155;-77
2022/01/21 02:54:07;;;;;;;13.57;3.08;;;0.20;99.90;;;;;;7209039;32;20203;-77
2022/01/21 02:58:09;;;;;;;10.20;2.53;;;0.20;99.90;;;;;;7233533;32;20155;-78
2022/01/21 03:02:11;;;;;;;10.25;2.35;;;0.20;99.90;;;;;;7210977;32;20136;-77
2022/01/21 03:06:17;;;;;;;9.10;2.85;;;0.20;99.90;;;;;;7218551;32;20112;-77
2022/01/21 03:10:18;;;;;;;15.85;2.80;;;0.10;99.90;;;;;;7210507;32;20211;-77
2022/01/21 03:14:20;;;;;;;8.60;2.95;;;0.00;99.90;;;;;;7230090;32;20156;-77
2022/01/21 03:18:22;;;;;;;11.95;3.05;;;0.00;99.90;;;;;;7216907;32;20194;-77
2022/01/21 03:22:24;;;;;;;18.98;3.55;;;0.00;99.90;;;;;;7214411;32;20785;-77
2022/01/21 03:26:27;;;;;;;11.90;2.85;;;0.10;99.90;;;;;;7224871;32;20108;-77
2022/01/21 03:30:29;;;;;;;11.95;3.45;;;0.10;99.90;;;;;;7220377;32;20200;-77
2022/01/21 03:34:31;;;;;;;16.45;3.45;;;0.20;99.90;;;;;;7218364;32;20224;-77
2022/01/21 03:38:33;;;;;;;9.73;3.42;;;0.20;99.90;;;;;;7232172;32;20180;-77
2022/01/21 03:42:35;;;;;;;7.40;2.83;;;0.20;99.90;;;;;;7222759;32;20537;-77
2022/01/21 03:46:37;;;;;;;10.52;3.17;;;0.20;99.90;;;;;;7239274;32;20211;-77
2022/01/21 03:50:44;;;;;;;10.38;3.65;;;0.20;99.90;;;;;;7224904;32;20121;-77
2022/01/21 03:54:46;;;;;;;12.98;3.50;;;0.20;99.90;;;;;;7226797;32;20158;-77
2022/01/21 03:58:48;;;;;;;13.10;3.40;;;0.10;99.90;;;;;;7235055;32;20746;-77
2022/01/21 04:02:50;;;;;;;13.70;3.85;;;0.10;99.90;;;;;;7241069;32;20184;-77
2022/01/21 04:06:52;;;;;;;14.85;4.70;;;0.00;99.90;;;;;;7253011;32;20109;-77
2022/01/21 04:10:54;;;;;;;10.43;4.28;;;-0.10;99.90;;;;;;7253111;32;20073;-77
2022/01/21 04:15:01;;;;;;;16.05;4.55;;;0.00;99.90;;;;;;7252713;32;20112;-77
2022/01/21 04:19:03;;;;;;;12.45;3.92;;;0.10;99.90;;;;;;7229972;32;20223;-77
2022/01/21 04:23:04;;;;;;;19.73;4.75;;;0.10;99.90;;;;;;7236808;32;20132;-77
2022/01/21 04:27:06;;;;;;;13.77;4.57;;;0.10;99.90;;;;;;7237900;32;20151;-77
2022/01/21 04:31:08;;;;;;;10.05;4.00;;;0.10;99.90;;;;;;7246523;32;20665;-77
2022/01/21 04:35:10;;;;;;;8.98;3.65;;;0.10;99.90;;;;;;7244628;32;20373;-78
2022/01/21 04:39:19;;;;;;;20.50;4.55;;;0.00;99.90;;;;;;7244758;32;20124;-78
2022/01/21 04:47:42;;;;;;;19.60;4.45;;;-0.10;99.90;;;;;;7227746;32;20692;-78
2022/01/21 04:52:02;;;;;;;17.73;4.57;;;0.00;99.90;;;;;;7242195;32;20159;-78
2022/01/21 04:56:04;;;;;;;22.95;7.37;;;-0.10;99.90;;;;;;7240871;32;20200;-78
2022/01/21 05:00:07;;;;;;;14.38;6.43;;;-0.10;99.90;;;;;;7249043;32;20535;-78
2022/01/21 05:04:10;;;;;;;18.00;5.95;;;-0.10;99.90;;;;;;7211440;32;20155;-78
2022/01/21 05:08:23;;;;;;;13.25;5.55;;;-0.10;99.90;;;;;;7241143;32;20147;-78
2022/01/21 05:12:27;;;;;;;15.77;5.70;;;-0.10;99.90;;;;;;7240884;32;20138;-76
2022/01/21 05:16:36;;;;;;;15.13;5.37;;;0.00;99.90;;;;;;7231080;32;20302;-77
2022/01/21 05:20:38;;;;;;;14.07;4.78;;;0.00;99.90;;;;;;7238680;32;20129;-78
2022/01/21 05:24:40;;;;;;;12.20;4.93;;;0.00;99.90;;;;;;7212456;32;20613;-77
2022/01/21 05:28:41;;;;;;;13.98;4.55;;;-0.10;99.90;;;;;;7230835;32;20192;-76
2022/01/21 05:32:43;;;;;;;14.13;4.85;;;-0.10;99.90;;;;;;7225739;32;20207;-77
2022/01/21 05:36:46;;;;;;;15.65;5.12;;;-0.10;99.90;;;;;;7215028;32;20121;-77
2022/01/21 05:40:48;;;;;;;12.37;4.68;;;-0.10;99.90;;;;;;7235523;32;20171;-76
2022/01/21 05:48:52;;;;;;;15.20;5.05;;;-0.20;99.90;;;;;;7238845;32;20201;-78
2022/01/21 05:52:55;;;;;;;13.88;4.12;;;-0.20;99.90;;;;;;7230036;32;20277;-77
2022/01/21 05:56:58;;;;;;;13.45;4.47;;;-0.30;99.90;;;;;;7234599;32;20295;-80
2022/01/21 06:01:00;;;;;;;18.08;4.55;;;-0.20;99.90;;;;;;7233027;32;20640;-77
2022/01/21 06:05:02;;;;;;;16.77;8.07;;;-0.20;99.90;;;;;;7206862;32;20141;-77
2022/01/21 06:09:06;;;;;;;15.32;4.80;;;-0.20;99.90;;;;;;7230642;32;20216;-77
2022/01/21 06:13:07;;;;;;;13.13;4.75;;;-0.20;99.90;;;;;;7222452;32;20558;-77
2022/01/21 06:17:12;;;;;;;13.18;4.70;;;-0.10;99.90;;;;;;7233298;32;20227;-77
2022/01/21 06:21:14;;;;;;;12.27;4.22;;;-0.20;99.90;;;;;;7223404;32;20128;-77
2022/01/21 06:25:15;;;;;;;12.93;3.70;;;-0.20;99.90;;;;;;7226271;32;20121;-77
2022/01/21 06:29:17;;;;;;;10.13;3.90;;;-0.20;99.90;;;;;;7229822;32;20105;-78
2022/01/21 06:33:22;;;;;;;12.95;4.82;;;-0.20;99.90;;;;;;7225147;32;20222;-78
2022/01/21 06:37:24;;;;;;;22.95;4.57;;;-0.20;99.90;;;;;;7230091;32;20245;-77
2022/01/21 06:41:26;;;;;;;11.77;4.57;;;-0.10;99.90;;;;;;7233543;32;20131;-78
2022/01/21 06:45:28;;;;;;;10.07;3.75;;;-0.10;99.90;;;;;;7220110;32;20109;-77
2022/01/21 06:49:30;;;;;;;8.57;3.72;;;-0.10;99.90;;;;;;7225625;32;20268;-78
2022/01/21 06:53:32;;;;;;;12.55;4.12;;;0.00;99.90;;;;;;7221953;32;20129;-78
2022/01/21 06:57:38;;;;;;;10.63;3.67;;;0.00;99.90;;;;;;7216210;32;20180;-78
2022/01/21 07:01:40;;;;;;;10.33;4.10;;;0.00;99.90;;;;;;7228518;32;20965;-78
2022/01/21 07:05:46;;;;;;;12.73;3.78;;;0.10;99.90;;;;;;7233453;32;20189;-77
2022/01/21 07:09:48;;;;;;;15.10;4.60;;;0.20;99.90;;;;;;7228051;32;20133;-77
2022/01/21 07:13:50;;;;;;;13.15;3.92;;;0.10;99.90;;;;;;7235075;32;20268;-77
2022/01/21 07:17:53;;;;;;;14.30;4.40;;;0.20;99.90;;;;;;7242692;32;20154;-77
2022/01/21 07:21:55;;;;;;;11.32;4.07;;;0.20;99.90;;;;;;7235123;32;20529;-77
2022/01/21 07:25:57;;;;;;;14.30;3.78;;;0.10;99.90;;;;;;7223907;32;20190;-78
2022/01/21 07:29:59;;;;;;;9.45;4.28;;;0.00;99.90;;;;;;7227897;32;20430;-77
2022/01/21 07:34:04;;;;;;;18.30;5.05;;;0.00;99.90;;;;;;7206091;32;20188;-77
2022/01/21 07:38:06;;;;;;;14.43;7.10;;;-0.10;99.90;;;;;;7233777;32;20188;-78
2022/01/21 07:42:08;;;;;;;17.40;6.05;;;-0.20;99.90;;;;;;7231745;32;20238;-77
2022/01/21 07:46:09;;;;;;;12.88;5.37;;;-0.20;99.90;;;;;;7217837;32;20227;-77
2022/01/21 07:50:11;;;;;;;16.05;6.37;;;-0.20;99.90;;;;;;7232821;32;20158;-77
2022/01/21 07:54:14;;;;;;;13.20;6.40;;;-0.30;99.90;;;;;;7205971;32;20110;-78
2022/01/21 07:58:17;;;;;;;21.02;6.87;;;-0.20;99.90;;;;;;7231353;32;20129;-78
2022/01/21 08:02:19;;;;;;;11.20;5.82;;;-0.10;99.90;;;;;;7237748;32;20171;-78
2022/01/21 08:06:21;;;;;;;13.10;4.87;;;0.00;99.90;;;;;;7213045;32;20648;-78
2022/01/21 08:10:23;;;;;;;11.52;4.30;;;-0.10;99.90;;;;;;7217786;32;20146;-78
2022/01/21 08:14:25;;;;;;;16.87;4.18;;;0.00;99.90;;;;;;7216000;32;20176;-78
2022/01/21 08:18:26;;;;;;;14.07;4.97;;;0.00;99.90;;;;;;7242218;32;20121;-77
2022/01/21 08:22:28;;;;;;;15.57;4.40;;;0.30;99.90;;;;;;7250977;32;20120;-78
2022/01/21 08:26:30;;;;;;;14.43;4.30;;;0.40;99.90;;;;;;7227168;32;20220;-77
2022/01/21 08:30:32;;;;;;;16.50;4.85;;;0.50;99.90;;;;;;7226819;32;20130;-76
2022/01/21 08:34:34;;;;;;;15.88;4.85;;;0.50;99.90;;;;;;7232913;32;20254;-77
2022/01/21 08:38:38;;;;;;;11.70;4.07;;;0.50;99.90;;;;;;7250794;32;20167;-77
2022/01/21 08:42:39;;;;;;;18.75;4.95;;;0.60;99.90;;;;;;7225274;32;20177;-78
2022/01/21 08:46:41;;;;;;;20.80;4.87;;;0.60;99.90;;;;;;7204876;32;20161;-77
2022/01/21 08:51:09;;;;;;;10.00;4.03;;;0.70;99.90;;;;;;7231136;32;20704;-77
2022/01/21 08:55:16;;;;;;;20.45;4.95;;;0.90;99.90;;;;;;7233310;32;20229;-77
2022/01/21 08:59:19;;;;;;;12.00;4.55;;;1.00;99.90;;;;;;7241638;32;20167;-77
2022/01/21 09:03:21;;;;;;;12.13;4.45;;;0.90;99.90;;;;;;7225211;32;22034;-77
2022/01/21 09:07:23;;;;;;;15.40;4.95;;;1.00;99.90;;;;;;7230804;32;20178;-78
2022/01/21 09:11:25;;;;;;;16.45;4.82;;;0.90;99.90;;;;;;7232416;32;20124;-77
2022/01/21 09:15:28;;;;;;;10.23;4.45;;;1.00;99.90;;;;;;7235902;32;20208;-77
2022/01/21 09:19:33;;;;;;;11.10;4.75;;;1.10;99.90;;;;;;7234546;32;20124;-77
2022/01/21 09:23:34;;;;;;;13.52;4.47;;;1.20;99.90;;;;;;7221848;32;20117;-77
2022/01/21 09:27:36;;;;;;;12.43;4.47;;;1.40;99.90;;;;;;7220346;32;20212;-77
2022/01/21 09:31:38;;;;;;;15.45;4.82;;;1.50;99.90;;;;;;7226229;32;20250;-77
2022/01/21 09:35:56;;;;;;;11.93;4.12;;;1.60;99.90;;;;;;7217590;32;20131;-76
2022/01/21 09:39:58;;;;;;;12.27;4.57;;;1.90;99.90;;;;;;7226089;32;20146;-76
2022/01/21 09:44:02;;;;;;;11.95;3.70;;;2.00;99.90;;;;;;7205163;32;20167;-76
2022/01/21 09:48:06;;;;;;;11.27;3.53;;;2.20;99.90;;;;;;7224857;32;20159;-76
2022/01/21 09:52:10;;;;;;;11.82;4.05;;;2.30;99.90;;;;;;7224032;32;20306;-77
2022/01/21 10:01:18;;;;;;;10.00;3.78;;;2.30;99.90;;;;;;7222252;32;20256;-76
2022/01/21 10:05:20;;;;;;;10.57;3.67;;;2.30;99.90;;;;;;7215590;32;20270;-76
2022/01/21 10:09:24;;;;;;;10.43;3.40;;;2.30;99.90;;;;;;7224009;32;20231;-76
2022/01/21 10:13:30;;;;;;;10.77;3.05;;;2.40;99.90;;;;;;7217572;32;20186;-76
2022/01/21 10:17:32;;;;;;;14.02;3.42;;;2.40;99.90;;;;;;7227929;32;20740;-75
2022/01/21 10:21:36;;;;;;;14.55;3.30;;;2.40;99.90;;;;;;7217758;32;20212;-76
2022/01/21 10:25:40;;;;;;;14.85;3.45;;;2.60;99.90;;;;;;7216387;32;20117;-76
2022/01/21 10:29:43;;;;;;;10.45;3.40;;;2.70;99.90;;;;;;7219058;32;20140;-76
2022/01/21 10:33:48;;;;;;;12.55;3.40;;;2.80;99.90;;;;;;7224508;32;20176;-76
2022/01/21 10:37:50;;;;;;;15.35;3.08;;;2.80;99.90;;;;;;7214727;32;20573;-77
2022/01/21 10:41:52;;;;;;;8.50;3.33;;;2.90;99.90;;;;;;7228630;32;20212;-77
2022/01/21 10:45:57;;;;;;;5.68;2.33;;;3.10;99.90;;;;;;7202085;32;20863;-76
2022/01/21 10:50:04;;;;;;;8.95;2.90;;;3.40;99.90;;;;;;7214498;32;20158;-77
2022/01/21 10:54:12;;;;;;;11.88;3.25;;;3.60;99.90;;;;;;7225660;32;20121;-77
2022/01/21 10:58:16;;;;;;;13.45;2.70;;;3.80;99.90;;;;;;7208172;32;20604;-76
2022/01/21 11:02:36;;;;;;;8.25;2.28;;;3.90;99.90;;;;;;7226205;32;20576;-77
2022/01/21 11:06:57;;;;;;;9.98;2.40;;;4.00;99.90;;;;;;7204653;32;20149;-77
2022/01/21 11:10:59;;;;;;;8.40;2.70;;;4.20;99.90;;;;;;7213359;32;20221;-77
2022/01/21 11:15:04;;;;;;;10.35;2.60;;;4.30;99.90;;;;;;7217712;32;20954;-77
2022/01/21 11:19:16;;;;;;;6.47;2.40;;;4.30;99.90;;;;;;7211418;32;20672;-77
2022/01/21 11:23:48;;;;;;;9.55;2.35;;;4.40;99.90;;;;;;7238441;32;20077;-77
2022/01/21 11:27:55;;;;;;;7.62;2.65;;;4.30;99.90;;;;;;7206922;32;20235;-77
2022/01/21 11:31:57;;;;;;;7.93;2.75;;;4.40;99.90;;;;;;7230179;32;20176;-77
2022/01/21 11:36:00;;;;;;;10.10;2.37;;;4.60;99.90;;;;;;7219868;32;20731;-77
2022/01/21 11:40:03;;;;;;;10.48;2.25;;;4.60;99.90;;;;;;7227930;32;20125;-77
2022/01/21 11:44:06;;;;;;;7.28;2.08;;;4.60;99.90;;;;;;7211940;32;20172;-77
2022/01/21 11:52:20;;;;;;;9.65;2.33;;;4.90;99.90;;;;;;7229209;32;20456;-78
2022/01/21 11:56:55;;;;;;;10.85;2.03;;;4.90;99.90;;;;;;7228209;32;20143;-77
2022/01/21 12:01:05;;;;;;;7.85;1.98;;;5.00;99.90;;;;;;7221362;32;20131;-77
2022/01/21 12:05:11;;;;;;;12.07;2.40;;;4.90;99.90;;;;;;7224905;32;20577;-78
2022/01/21 12:09:14;;;;;;;12.52;2.83;;;4.90;99.90;;;;;;7226208;32;20633;-77
2022/01/21 12:13:20;;;;;;;13.55;2.87;;;4.80;99.90;;;;;;7216350;32;20136;-77
2022/01/21 12:17:46;;;;;;;12.77;2.80;;;4.70;99.90;;;;;;7214661;32;20151;-77
2022/01/21 12:21:50;;;;;;;13.23;3.25;;;4.90;99.90;;;;;;7217277;32;20668;-78
2022/01/21 12:26:17;;;;;;;10.50;3.40;;;4.90;99.90;;;;;;7226139;32;20124;-78
2022/01/21 12:30:30;;;;;;;10.27;3.67;;;5.00;99.90;;;;;;7225877;32;20136;-77
2022/01/21 12:35:01;;;;;;;10.20;3.60;;;5.10;99.90;;;;;;7228078;32;20231;-77
2022/01/21 12:39:25;;;;;;;15.77;3.90;;;5.20;99.90;;;;;;7214626;32;20117;-78
2022/01/21 12:43:46;;;;;;;15.05;4.57;;;5.20;99.90;;;;;;7230992;32;20108;-78
2022/01/21 12:47:48;;;;;;;12.85;4.20;;;5.40;99.90;;;;;;7222799;32;20143;-77
2022/01/21 12:56:04;;;;;;;15.35;3.50;;;5.40;99.90;;;;;;7249715;32;20080;-77
2022/01/21 13:00:09;;;;;;;14.65;3.17;;;5.30;99.90;;;;;;7252294;32;20351;-76
2022/01/21 13:04:39;;;;;;;11.80;2.70;;;5.30;99.90;;;;;;7226802;32;20258;-77
2022/01/21 13:09:02;;;;;;;12.40;2.58;;;5.30;99.90;;;;;;7208287;32;20196;-77
2022/01/21 13:17:14;;;;;;;13.48;3.10;;;5.20;99.90;;;;;;7213583;32;20200;-77
2022/01/21 13:21:16;;;;;;;10.45;3.05;;;5.10;99.90;;;;;;7217587;32;20110;-77
2022/01/21 13:25:20;;;;;;;11.73;2.60;;;5.20;99.90;;;;;;7220133;32;20109;-76
2022/01/21 13:29:37;;;;;;;13.45;2.75;;;5.20;99.90;;;;;;7224779;32;20294;-76
2022/01/21 13:33:39;;;;;;;7.22;2.00;;;5.20;99.90;;;;;;7200536;32;20214;-76
2022/01/21 13:38:15;;;;;;;13.68;3.28;;;5.20;99.90;;;;;;7222706;32;20243;-76
2022/01/21 13:42:21;;;;;;;9.00;2.78;;;5.20;99.90;;;;;;7214496;32;20694;-76
2022/01/21 13:46:23;;;;;;;10.57;2.60;;;5.20;99.90;;;;;;7227129;32;20120;-76
2022/01/21 13:50:26;;;;;;;12.07;3.08;;;5.20;99.90;;;;;;7211610;32;20151;-75
2022/01/21 13:54:30;;;;;;;11.57;3.10;;;5.20;99.90;;;;;;7228396;32;20174;-75
2022/01/21 13:58:34;;;;;;;12.43;3.55;;;5.20;99.90;;;;;;7216139;32;20211;-77
2022/01/21 14:02:36;;;;;;;8.70;3.30;;;5.20;99.90;;;;;;7214463;32;20183;-77
2022/01/21 14:06:38;;;;;;;12.57;3.92;;;5.10;99.90;;;;;;7214027;32;20223;-76
2022/01/21 14:10:41;;;;;;;11.57;3.00;;;5.10;99.90;;;;;;7215086;32;20239;-76
2022/01/21 14:14:45;;;;;;;12.82;3.42;;;5.10;99.90;;;;;;7215607;32;20630;-77
2022/01/21 14:18:48;;;;;;;15.50;3.42;;;5.10;99.90;;;;;;7212257;32;20144;-76
2022/01/21 14:22:50;;;;;;;10.85;2.75;;;5.20;99.90;;;;;;7227662;32;20199;-76
2022/01/21 14:26:55;;;;;;;8.73;2.83;;;5.00;99.90;;;;;;7225713;32;20262;-76
2022/01/21 14:30:57;;;;;;;18.17;4.25;;;5.10;99.90;;;;;;7214216;32;20133;-76
2022/01/21 14:35:06;;;;;;;15.63;2.30;;;5.10;99.90;;;;;;7225561;32;20136;-76
2022/01/21 14:39:19;;;;;;;8.85;2.12;;;5.10;99.90;;;;;;7212928;32;20144;-77
2022/01/21 14:43:25;;;;;;;10.68;2.25;;;5.20;99.90;;;;;;7214688;32;20502;-75
2022/01/21 14:47:33;;;;;;;8.30;1.95;;;5.20;99.90;;;;;;7213512;32;20204;-75
2022/01/21 14:52:03;;;;;;;12.30;2.40;;;5.20;99.90;;;;;;7222188;32;20155;-75
2022/01/21 14:56:08;;;;;;;13.10;2.35;;;5.20;99.90;;;;;;7210015;32;20192;-76
2022/01/21 15:00:11;;;;;;;12.77;2.45;;;5.20;99.90;;;;;;7225590;32;20636;-75
2022/01/21 15:04:14;;;;;;;9.43;2.60;;;5.20;99.90;;;;;;7194607;32;20191;-75
2022/01/21 15:08:27;;;;;;;11.90;2.62;;;5.10;99.90;;;;;;7213883;32;20498;-75
2022/01/21 15:17:14;;;;;;;11.23;2.62;;;5.20;99.90;;;;;;7216153;32;20241;-76
2022/01/21 15:21:28;;;;;;;13.25;3.75;;;5.30;99.90;;;;;;7234775;32;20105;-76
2022/01/21 15:25:32;;;;;;;13.48;3.60;;;5.20;99.90;;;;;;7216453;32;20183;-76
2022/01/21 15:29:35;;;;;;;12.77;3.58;;;5.30;99.90;;;;;;7220017;32;20245;-76
2022/01/21 15:33:38;;;;;;;17.40;2.75;;;5.30;99.90;;;;;;7230059;32;20995;-76
2022/01/21 15:37:40;;;;;;;10.07;2.95;;;5.20;99.90;;;;;;7224151;32;22169;-76
2022/01/21 15:41:44;;;;;;;13.15;3.47;;;5.20;99.90;;;;;;7223127;32;21222;-76
2022/01/21 15:45:46;;;;;;;13.07;3.28;;;5.30;99.90;;;;;;7229973;32;21509;-76
2022/01/21 15:49:52;;;;;;;14.50;3.20;;;5.30;99.90;;;;;;7219872;32;20402;-76
2022/01/21 15:54:04;;;;;;;14.07;3.80;;;5.30;99.90;;;;;;7224382;32;20139;-76
2022/01/21 15:58:06;;;;;;;14.25;3.70;;;5.30;99.90;;;;;;7215768;32;20247;-76
2022/01/21 16:02:08;;;;;;;10.75;3.03;;;5.30;99.90;;;;;;7216242;32;20145;-76
2022/01/21 16:06:11;;;;;;;12.50;3.20;;;5.40;99.90;;;;;;7220056;32;20436;-76
2022/01/21 16:10:14;;;;;;;16.15;3.70;;;5.30;99.90;;;;;;7218712;32;20112;-77
2022/01/21 16:14:15;;;;;;;11.73;3.33;;;5.20;99.90;;;;;;7222055;32;20305;-77
2022/01/21 16:18:17;;;;;;;14.73;3.47;;;5.30;99.90;;;;;;7243005;32;20112;-78
2022/01/21 16:22:19;;;;;;;13.10;3.67;;;5.30;99.90;;;;;;7233334;32;20184;-78
2022/01/21 16:26:21;;;;;;;12.95;4.53;;;5.30;99.90;;;;;;7233877;32;20174;-79
2022/01/21 16:30:23;;;;;;;14.57;4.80;;;5.20;99.90;;;;;;7228821;32;20159;-78
2022/01/21 16:34:28;;;;;;;11.35;4.20;;;5.20;99.90;;;;;;7225012;32;20135;-78
2022/01/21 16:38:30;;;;;;;10.43;4.57;;;5.20;99.90;;;;;;7224760;32;20113;-78
2022/01/21 16:42:33;;;;;;;18.30;4.95;;;5.20;99.90;;;;;;7234957;32;20688;-78
2022/01/21 16:46:36;;;;;;;14.40;4.82;;;5.20;99.90;;;;;;7229949;32;20658;-76
2022/01/21 16:50:39;;;;;;;13.40;4.75;;;5.30;99.90;;;;;;7231543;32;20112;-76
2022/01/21 16:54:41;;;;;;;13.57;4.87;;;5.30;99.90;;;;;;7216183;32;20117;-77
2022/01/21 16:58:43;;;;;;;15.80;5.43;;;5.30;99.90;;;;;;7235502;32;20170;-77
2022/01/21 17:02:45;;;;;;;13.77;6.40;;;5.20;99.90;;;;;;7223752;32;20120;-77
2022/01/21 17:06:47;;;;;;;16.70;6.00;;;5.20;99.90;;;;;;7258567;32;20112;-78
2022/01/21 17:10:48;;;;;;;19.92;6.97;;;5.10;99.90;;;;;;7246670;32;20202;-77
2022/01/21 17:14:50;;;;;;;13.45;6.00;;;5.20;99.90;;;;;;7221045;32;20213;-77
2022/01/21 17:18:52;;;;;;;13.15;6.50;;;5.20;99.90;;;;;;7204013;32;20262;-77
2022/01/21 17:22:55;;;;;;;19.42;7.82;;;5.20;99.90;;;;;;7236995;32;20148;-77
2022/01/21 17:26:56;;;;;;;14.87;6.00;;;5.20;99.90;;;;;;7212415;32;20113;-76
2022/01/21 17:30:58;;;;;;;12.02;6.57;;;5.20;99.90;;;;;;7226819;32;20143;-77
2022/01/21 17:35:00;;;;;;;17.62;6.12;;;5.20;99.90;;;;;;7220803;32;20120;-77
2022/01/21 17:39:05;;;;;;;19.35;7.15;;;5.20;99.90;;;;;;7229147;32;20613;-77
2022/01/21 17:43:07;;;;;;;15.93;6.05;;;5.20;99.90;;;;;;7231246;32;20238;-77
2022/01/21 17:47:09;;;;;;;14.35;6.03;;;5.10;99.90;;;;;;7219219;32;20116;-77
2022/01/21 17:51:12;;;;;;;15.02;6.37;;;5.20;99.90;;;;;;7221840;32;20182;-77
2022/01/21 17:55:14;;;;;;;16.02;5.62;;;5.20;99.90;;;;;;7217872;32;20838;-77
2022/01/21 17:59:17;;;;;;;16.83;6.70;;;5.20;99.90;;;;;;7235367;32;20124;-77
2022/01/21 18:03:18;;;;;;;16.40;6.50;;;5.20;99.90;;;;;;7235254;32;20120;-77
2022/01/21 18:07:22;;;;;;;17.27;5.35;;;5.20;99.90;;;;;;7209700;32;20113;-77
2022/01/21 18:11:25;;;;;;;21.12;5.43;;;5.30;99.90;;;;;;7220998;32;20112;-76
2022/01/21 18:15:27;;;;;;;15.00;5.60;;;5.30;99.90;;;;;;7226183;32;20108;-77
2022/01/21 18:20:03;;;;;;;12.02;5.18;;;5.30;99.90;;;;;;7229303;32;20487;-76
2022/01/21 18:23:57;;;;;;;;;;;5.20;99.90;;;;;;7228426;32;20142;-76
2022/01/21 18:27:59;;;;;;;17.77;6.00;;;5.30;99.90;;;;;;7231773;32;20189;-76
2022/01/21 18:32:01;;;;;;;13.50;5.55;;;5.20;99.90;;;;;;7214931;32;20149;-76
2022/01/21 18:36:05;;;;;;;20.60;8.43;;;5.30;99.90;;;;;;7224823;32;20149;-76
2022/01/21 18:40:08;;;;;;;18.55;7.25;;;5.20;99.90;;;;;;7226890;32;20251;-77
2022/01/21 18:44:10;;;;;;;12.32;5.60;;;5.20;99.90;;;;;;7217717;32;20112;-76
2022/01/21 18:48:12;;;;;;;13.93;5.22;;;5.20;99.90;;;;;;7227399;32;20113;-76
2022/01/21 18:52:23;;;;;;;15.68;5.60;;;5.20;99.90;;;;;;7233239;32;20355;-76
2022/01/21 18:56:25;;;;;;;16.35;6.50;;;5.10;99.90;;;;;;7212265;32;20150;-76
2022/01/21 19:00:27;;;;;;;16.73;5.60;;;5.20;99.90;;;;;;7213691;32;20120;-77
2022/01/21 19:04:29;;;;;;;14.27;5.43;;;5.10;99.90;;;;;;7218554;32;20152;-77
2022/01/21 19:08:31;;;;;;;16.33;5.80;;;5.20;99.90;;;;;;7211017;32;20117;-76
2022/01/21 19:12:33;;;;;;;15.73;6.50;;;5.10;99.90;;;;;;7217394;32;20211;-77
2022/01/21 19:16:35;;;;;;;13.35;5.75;;;5.00;99.90;;;;;;7222908;32;20195;-77
2022/01/21 19:20:39;;;;;;;19.25;6.80;;;5.10;99.90;;;;;;7221218;32;20113;-77
2022/01/21 19:24:50;;;;;;;16.27;6.80;;;5.10;99.90;;;;;;7224308;32;20112;-77
2022/01/21 19:28:52;;;;;;;21.90;7.20;;;5.00;99.90;;;;;;7229748;32;20116;-76
2022/01/21 19:32:54;;;;;;;16.92;7.95;;;5.10;99.90;;;;;;7215821;32;20347;-76
2022/01/21 19:36:56;;;;;;;17.83;8.77;;;5.00;99.90;;;;;;7203053;32;20151;-76
2022/01/21 19:41:02;;;;;;;19.25;10.05;;;5.00;99.90;;;;;;7220454;32;20186;-76
2022/01/21 19:45:11;;;;;;;17.30;10.15;;;5.00;99.90;;;;;;7231839;32;20140;-77
2022/01/21 19:49:14;;;;;;;21.35;9.35;;;5.00;99.90;;;;;;7240911;32;20719;-78
2022/01/21 19:53:16;;;;;;;18.58;9.35;;;5.00;99.90;;;;;;7228370;32;20183;-76
2022/01/21 19:57:31;;;;;;;20.20;10.35;;;5.00;99.90;;;;;;7211658;32;20501;-77
2022/01/21 20:01:44;;;;;;;23.73;8.65;;;4.90;99.90;;;;;;7221149;32;20230;-77
2022/01/21 20:10:00;;;;;;;21.42;8.27;;;4.90;99.90;;;;;;7229466;32;20652;-76
2022/01/21 20:14:12;;;;;;;18.83;8.73;;;4.90;99.90;;;;;;7217899;32;20541;-77
2022/01/21 20:18:18;;;;;;;20.80;8.20;;;4.80;99.90;;;;;;7213690;33;20230;-76
2022/01/21 20:22:20;;;;;;;15.83;7.80;;;4.70;99.90;;;;;;7231693;32;20199;-78
2022/01/21 20:26:22;;;;;;;24.12;9.40;;;4.70;99.90;;;;;;7218999;32;20182;-77
2022/01/21 20:30:24;;;;;;;19.70;8.25;;;4.70;99.90;;;;;;7217150;32;20300;-77
2022/01/21 20:34:26;;;;;;;23.58;8.77;;;4.70;99.90;;;;;;7227114;32;20136;-77
2022/01/21 20:38:31;;;;;;;28.75;11.70;;;4.70;99.90;;;;;;7225218;32;20144;-77
2022/01/21 20:42:33;;;;;;;28.08;10.65;;;4.60;99.90;;;;;;7228888;32;20140;-77
2022/01/21 20:46:36;;;;;;;20.30;9.57;;;4.70;99.90;;;;;;7236433;32;20549;-77
2022/01/21 20:50:38;;;;;;;18.23;8.32;;;4.70;99.90;;;;;;7230207;32;20174;-77
2022/01/21 20:54:40;;;;;;;21.80;9.07;;;4.60;99.90;;;;;;7222244;32;20125;-77
2022/01/21 20:58:42;;;;;;;24.30;9.68;;;4.70;99.90;;;;;;7233540;32;20108;-77
2022/01/21 21:02:44;;;;;;;21.00;10.50;;;4.60;99.90;;;;;;7221199;32;20296;-78
2022/01/21 21:06:47;;;;;;;25.02;10.20;;;4.70;99.90;;;;;;7231386;32;20129;-78
2022/01/21 21:10:51;;;;;;;24.05;10.20;;;4.60;99.90;;;;;;7241016;32;20178;-78
2022/01/21 21:14:57;;;;;;;20.33;10.15;;;4.60;99.90;;;;;;7246203;32;20116;-76
2022/01/21 21:27:39;;;;;;;22.75;11.55;;;4.60;99.90;;;;;;7232950;32;20830;-77
2022/01/21 22:59:48;;;;;;;15.65;8.50;;;4.20;99.90;;;;;;7220309;32;20665;-77
2022/01/21 23:02:03;;;;;;;15.60;8.32;;;4.20;99.90;;;;;;7234678;32;20131;-77
2022/01/21 23:06:10;;;;;;;20.50;7.68;;;4.10;99.90;;;;;;7225116;32;20759;-76
2022/01/21 23:10:12;;;;;;;21.60;7.90;;;4.10;99.90;;;;;;7226440;32;20541;-76
2022/01/21 23:14:14;;;;;;;21.73;8.77;;;4.20;99.90;;;;;;7219729;32;20250;-77
2022/01/21 23:18:16;;;;;;;19.65;8.52;;;4.20;99.90;;;;;;7210193;32;20118;-76
2022/01/21 23:22:17;;;;;;;20.37;9.15;;;4.20;99.90;;;;;;7219353;32;20125;-77
2022/01/21 23:26:19;;;;;;;14.68;7.90;;;4.20;99.90;;;;;;7207350;32;20251;-76
2022/01/21 23:30:23;;;;;;;20.10;8.02;;;4.20;99.90;;;;;;7208548;32;20935;-76
2022/01/21 23:34:49;;;;;;;18.80;7.55;;;4.20;99.90;;;;;;7224308;32;20144;-77
2022/01/21 23:39:09;;;;;;;17.92;8.10;;;4.20;99.90;;;;;;7216765;32;20165;-78
2022/01/21 23:43:10;;;;;;;16.45;6.80;;;4.20;99.90;;;;;;7221442;32;20212;-76
2022/01/21 23:47:16;;;;;;;17.62;6.57;;;4.20;99.90;;;;;;7231385;32;20865;-75
2022/01/21 23:51:20;;;;;;;16.25;7.45;;;4.20;99.90;;;;;;7213558;32;20204;-76
2022/01/21 23:55:23;;;;;;;18.25;6.93;;;4.30;99.90;;;;;;7213195;32;20108;-77
2022/01/21 23:59:25;;;;;;;15.52;7.68;;;4.20;99.90;;;;;;7225052;32;20306;-77
